sensor_id;sensor_type;location;lat;lon;timestamp;temperature;humidity
37310;DHT22;23195;47.744;7.358;2023-08-06T00:01:49;16.30;99.90
37310;DHT22;23195;47.744;7.358;2023-08-06T00:04:55;16.30;99.90
37310;DHT22;23195;47.744;7.358;2023-08-06T00:11:35;16.20;99.90
37310;DHT22;23195;47.744;7.358;2023-08-06T00:14:22;16.20;99.90
37310;DHT22;23195;47.744;7.358;2023-08-06T00:24:11;16.20;99.90
37310;DHT22;23195;47.744;7.358;2023-08-06T00:27:20;16.20;99.90
37310;DHT22;23195;47.744;7.358;2023-08-06T00:30:37;16.20;99.90
37310;DHT22;23195;47.744;7.358;2023-08-06T00:40:38;16.30;99.90
37310;DHT22;23195;47.744;7.358;2023-08-06T00:50:07;16.40;99.90
37310;DHT22;23195;47.744;7.358;2023-08-06T00:56:43;16.60;99.90
37310;DHT22;23195;47.744;7.358;2023-08-06T00:59:37;16.60;99.90
37310;DHT22;23195;47.744;7.358;2023-08-06T01:15:46;16.80;99.90
37310;DHT22;23195;47.744;7.358;2023-08-06T01:18:41;16.80;99.90
37310;DHT22;23195;47.744;7.358;2023-08-06T01:21:36;16.80;99.90
37310;DHT22;23195;47.744;7.358;2023-08-06T01:24:17;16.70;99.90
37310;DHT22;23195;47.744;7.358;2023-08-06T01:27:17;16.70;99.90
37310;DHT22;23195;47.744;7.358;2023-08-06T01:30:22;16.70;99.90
37310;DHT22;23195;47.744;7.358;2023-08-06T01:33:33;16.70;99.90
37310;DHT22;23195;47.744;7.358;2023-08-06T01:36:07;16.70;99.90
37310;DHT22;23195;47.744;7.358;2023-08-06T01:38:54;16.70;99.90
37310;DHT22;23195;47.744;7.358;2023-08-06T01:41:30;16.80;99.90
37310;DHT22;23195;47.744;7.358;2023-08-06T01:47:14;16.80;99.90
37310;DHT22;23195;47.744;7.358;2023-08-06T01:49:59;16.80;99.90
37310;DHT22;23195;47.744;7.358;2023-08-06T01:52:43;16.70;99.90
37310;DHT22;23195;47.744;7.358;2023-08-06T01:58:47;16.40;99.90
37310;DHT22;23195;47.744;7.358;2023-08-06T02:01:24;16.30;99.90
37310;DHT22;23195;47.744;7.358;2023-08-06T02:04:23;16.40;99.90
37310;DHT22;23195;47.744;7.358;2023-08-06T02:10:30;15.80;99.90
37310;DHT22;23195;47.744;7.358;2023-08-06T02:13:08;15.50;99.90
37310;DHT22;23195;47.744;7.358;2023-08-06T02:15:48;15.30;99.90
37310;DHT22;23195;47.744;7.358;2023-08-06T02:18:28;15.20;99.90
37310;DHT22;23195;47.744;7.358;2023-08-06T02:21:16;15.20;99.90
37310;DHT22;23195;47.744;7.358;2023-08-06T02:26:58;14.90;99.90
37310;DHT22;23195;47.744;7.358;2023-08-06T02:29:59;15.40;99.90
37310;DHT22;23195;47.744;7.358;2023-08-06T02:32:48;14.90;99.90
37310;DHT22;23195;47.744;7.358;2023-08-06T02:35:25;14.70;99.90
37310;DHT22;23195;47.744;7.358;2023-08-06T02:38:12;15.30;99.90
37310;DHT22;23195;47.744;7.358;2023-08-06T02:40:53;14.50;99.90
37310;DHT22;23195;47.744;7.358;2023-08-06T02:44:01;15.80;99.90
37310;DHT22;23195;47.744;7.358;2023-08-06T02:46:55;14.40;99.90
37310;DHT22;23195;47.744;7.358;2023-08-06T02:49:56;14.30;99.90
37310;DHT22;23195;47.744;7.358;2023-08-06T02:52:47;14.20;99.90
37310;DHT22;23195;47.744;7.358;2023-08-06T02:55:44;14.10;99.90
37310;DHT22;23195;47.744;7.358;2023-08-06T02:58:24;14.10;99.90
37310;DHT22;23195;47.744;7.358;2023-08-06T03:01:20;14.00;99.90
37310;DHT22;23195;47.744;7.358;2023-08-06T03:04:01;14.00;99.90
37310;DHT22;23195;47.744;7.358;2023-08-06T03:06:28;14.00;99.90
37310;DHT22;23195;47.744;7.358;2023-08-06T03:09:03;14.00;99.90
37310;DHT22;23195;47.744;7.358;2023-08-06T03:11:48;14.00;99.90
37310;DHT22;23195;47.744;7.358;2023-08-06T03:14:40;13.90;99.90
37310;DHT22;23195;47.744;7.358;2023-08-06T03:17:37;13.80;99.90
37310;DHT22;23195;47.744;7.358;2023-08-06T03:20:14;13.80;99.90
37310;DHT22;23195;47.744;7.358;2023-08-06T03:22:45;13.80;99.90
37310;DHT22;23195;47.744;7.358;2023-08-06T03:25:42;13.80;99.90
37310;DHT22;23195;47.744;7.358;2023-08-06T03:28:28;13.70;99.90
37310;DHT22;23195;47.744;7.358;2023-08-06T03:31:06;13.70;99.90
37310;DHT22;23195;47.744;7.358;2023-08-06T03:33:49;13.70;99.90
37310;DHT22;23195;47.744;7.358;2023-08-06T03:36:20;13.70;99.90
37310;DHT22;23195;47.744;7.358;2023-08-06T03:39:05;13.70;99.90
37310;DHT22;23195;47.744;7.358;2023-08-06T03:42:31;13.70;99.90
37310;DHT22;23195;47.744;7.358;2023-08-06T03:45:08;13.60;99.90
37310;DHT22;23195;47.744;7.358;2023-08-06T03:47:47;13.60;99.90
37310;DHT22;23195;47.744;7.358;2023-08-06T03:50:35;13.50;99.90
37310;DHT22;23195;47.744;7.358;2023-08-06T03:53:35;13.50;99.90
37310;DHT22;23195;47.744;7.358;2023-08-06T04:06:31;13.60;99.90
37310;DHT22;23195;47.744;7.358;2023-08-06T04:09:36;13.60;99.90
37310;DHT22;23195;47.744;7.358;2023-08-06T04:12:41;13.70;99.90
37310;DHT22;23195;47.744;7.358;2023-08-06T04:25:14;13.90;99.90
37310;DHT22;23195;47.744;7.358;2023-08-06T04:27:58;13.90;99.90
37310;DHT22;23195;47.744;7.358;2023-08-06T04:30:45;13.90;99.90
37310;DHT22;23195;47.744;7.358;2023-08-06T04:40:35;13.90;99.90
37310;DHT22;23195;47.744;7.358;2023-08-06T04:43:50;13.90;99.90
37310;DHT22;23195;47.744;7.358;2023-08-06T04:46:38;13.80;99.90
37310;DHT22;23195;47.744;7.358;2023-08-06T04:49:14;13.80;99.90
37310;DHT22;23195;47.744;7.358;2023-08-06T04:51:42;13.50;99.90
37310;DHT22;23195;47.744;7.358;2023-08-06T04:54:39;13.60;99.90
37310;DHT22;23195;47.744;7.358;2023-08-06T05:06:30;13.90;99.90
37310;DHT22;23195;47.744;7.358;2023-08-06T05:15:55;13.90;99.90
37310;DHT22;23195;47.744;7.358;2023-08-06T05:24:57;14.10;99.90
37310;DHT22;23195;47.744;7.358;2023-08-06T05:27:35;14.20;99.90
37310;DHT22;23195;47.744;7.358;2023-08-06T05:30:13;14.20;99.90
37310;DHT22;23195;47.744;7.358;2023-08-06T05:32:51;13.30;99.90
37310;DHT22;23195;47.744;7.358;2023-08-06T05:35:40;14.30;99.90
37310;DHT22;23195;47.744;7.358;2023-08-06T05:39:16;14.20;99.90
37310;DHT22;23195;47.744;7.358;2023-08-06T05:42:16;14.20;99.90
37310;DHT22;23195;47.744;7.358;2023-08-06T05:45:08;14.20;99.90
37310;DHT22;23195;47.744;7.358;2023-08-06T05:47:44;14.20;99.90
37310;DHT22;23195;47.744;7.358;2023-08-06T05:51:06;15.20;99.90
37310;DHT22;23195;47.744;7.358;2023-08-06T05:54:05;14.20;99.90
37310;DHT22;23195;47.744;7.358;2023-08-06T05:56:36;14.20;99.90
37310;DHT22;23195;47.744;7.358;2023-08-06T05:59:42;14.30;99.90
37310;DHT22;23195;47.744;7.358;2023-08-06T06:02:18;14.20;99.90
37310;DHT22;23195;47.744;7.358;2023-08-06T06:04:44;14.20;99.90
37310;DHT22;23195;47.744;7.358;2023-08-06T06:07:20;14.10;99.90
37310;DHT22;23195;47.744;7.358;2023-08-06T06:10:03;14.10;99.90
37310;DHT22;23195;47.744;7.358;2023-08-06T06:12:47;14.00;99.90
37310;DHT22;23195;47.744;7.358;2023-08-06T06:18:44;14.10;99.90
37310;DHT22;23195;47.744;7.358;2023-08-06T06:21:32;14.20;99.90
37310;DHT22;23195;47.744;7.358;2023-08-06T06:24:11;14.40;99.90
37310;DHT22;23195;47.744;7.358;2023-08-06T06:26:57;14.50;99.90
37310;DHT22;23195;47.744;7.358;2023-08-06T06:29:26;14.60;99.90
37310;DHT22;23195;47.744;7.358;2023-08-06T06:32:11;14.70;99.90
37310;DHT22;23195;47.744;7.358;2023-08-06T06:34:53;14.40;99.90
37310;DHT22;23195;47.744;7.358;2023-08-06T06:37:28;14.40;99.90
37310;DHT22;23195;47.744;7.358;2023-08-06T06:46:53;14.50;99.90
37310;DHT22;23195;47.744;7.358;2023-08-06T06:49:32;13.30;99.90
37310;DHT22;23195;47.744;7.358;2023-08-06T06:52:23;14.70;99.90
37310;DHT22;23195;47.744;7.358;2023-08-06T07:02:41;14.50;99.90
37310;DHT22;23195;47.744;7.358;2023-08-06T07:05:18;14.50;99.90
37310;DHT22;23195;47.744;7.358;2023-08-06T07:08:05;14.40;99.90
37310;DHT22;23195;47.744;7.358;2023-08-06T07:11:05;15.70;99.90
37310;DHT22;23195;47.744;7.358;2023-08-06T07:24:26;19.20;99.90
37310;DHT22;23195;47.744;7.358;2023-08-06T07:27:32;18.60;99.90
37310;DHT22;23195;47.744;7.358;2023-08-06T07:30:26;18.30;99.90
37310;DHT22;23195;47.744;7.358;2023-08-06T07:33:15;18.20;99.90
37310;DHT22;23195;47.744;7.358;2023-08-06T07:36:10;17.80;99.90
37310;DHT22;23195;47.744;7.358;2023-08-06T07:45:24;17.30;99.90
37310;DHT22;23195;47.744;7.358;2023-08-06T07:51:46;17.10;99.90
37310;DHT22;23195;47.744;7.358;2023-08-06T08:04:59;16.90;99.90
37310;DHT22;23195;47.744;7.358;2023-08-06T08:21:33;18.20;99.90
37310;DHT22;23195;47.744;7.358;2023-08-06T08:25:00;17.30;99.90
37310;DHT22;23195;47.744;7.358;2023-08-06T08:28:04;16.80;99.90
37310;DHT22;23195;47.744;7.358;2023-08-06T08:37:33;15.90;99.90
37310;DHT22;23195;47.744;7.358;2023-08-06T08:48:25;15.80;99.90
37310;DHT22;23195;47.744;7.358;2023-08-06T08:51:46;16.00;99.90
37310;DHT22;23195;47.744;7.358;2023-08-06T09:01:39;15.80;99.90
37310;DHT22;23195;47.744;7.358;2023-08-06T09:14:05;15.60;99.90
37310;DHT22;23195;47.744;7.358;2023-08-06T09:16:35;16.00;99.90
37310;DHT22;23195;47.744;7.358;2023-08-06T09:19:26;16.30;99.90
37310;DHT22;23195;47.744;7.358;2023-08-06T09:22:14;16.40;99.90
37310;DHT22;23195;47.744;7.358;2023-08-06T09:25:02;16.50;99.90
37310;DHT22;23195;47.744;7.358;2023-08-06T09:27:46;16.70;99.90
37310;DHT22;23195;47.744;7.358;2023-08-06T09:30:35;17.20;99.90
37310;DHT22;23195;47.744;7.358;2023-08-06T09:33:28;17.40;99.90
37310;DHT22;23195;47.744;7.358;2023-08-06T09:43:04;18.70;99.90
37310;DHT22;23195;47.744;7.358;2023-08-06T09:49:28;18.50;99.90
37310;DHT22;23195;47.744;7.358;2023-08-06T09:52:03;18.50;99.90
37310;DHT22;23195;47.744;7.358;2023-08-06T09:57:40;17.90;99.90
37310;DHT22;23195;47.744;7.358;2023-08-06T10:00:40;17.90;99.90
37310;DHT22;23195;47.744;7.358;2023-08-06T10:24:21;19.20;99.90
37310;DHT22;23195;47.744;7.358;2023-08-06T10:27:31;19.20;99.90
37310;DHT22;23195;47.744;7.358;2023-08-06T10:33:14;19.90;99.90
37310;DHT22;23195;47.744;7.358;2023-08-06T10:36:08;20.10;99.90
37310;DHT22;23195;47.744;7.358;2023-08-06T10:39:25;19.90;99.90
37310;DHT22;23195;47.744;7.358;2023-08-06T10:49:30;20.60;99.90
37310;DHT22;23195;47.744;7.358;2023-08-06T10:51:59;20.40;99.90
37310;DHT22;23195;47.744;7.358;2023-08-06T10:57:43;20.20;99.90
37310;DHT22;23195;47.744;7.358;2023-08-06T11:00:12;20.60;99.90
37310;DHT22;23195;47.744;7.358;2023-08-06T11:02:53;18.70;99.90
37310;DHT22;23195;47.744;7.358;2023-08-06T11:05:59;20.00;99.90
37310;DHT22;23195;47.744;7.358;2023-08-06T11:09:01;19.20;99.90
37310;DHT22;23195;47.744;7.358;2023-08-06T11:12:17;19.00;99.90
37310;DHT22;23195;47.744;7.358;2023-08-06T11:14:54;18.80;99.90
37310;DHT22;23195;47.744;7.358;2023-08-06T11:20:57;18.70;99.90
37310;DHT22;23195;47.744;7.358;2023-08-06T11:27:10;18.60;99.90
37310;DHT22;23195;47.744;7.358;2023-08-06T11:34:06;18.90;99.90
37310;DHT22;23195;47.744;7.358;2023-08-06T11:43:14;18.70;99.90
37310;DHT22;23195;47.744;7.358;2023-08-06T11:46:14;19.00;99.90
37310;DHT22;23195;47.744;7.358;2023-08-06T11:53:02;19.40;99.90
37310;DHT22;23195;47.744;7.358;2023-08-06T11:55:51;19.30;99.90
37310;DHT22;23195;47.744;7.358;2023-08-06T12:02:20;20.00;99.90
37310;DHT22;23195;47.744;7.358;2023-08-06T12:15:00;18.80;99.90
37310;DHT22;23195;47.744;7.358;2023-08-06T12:24:39;19.30;99.90
37310;DHT22;23195;47.744;7.358;2023-08-06T12:30:49;19.70;99.90
37310;DHT22;23195;47.744;7.358;2023-08-06T12:33:24;20.00;99.90
37310;DHT22;23195;47.744;7.358;2023-08-06T12:35:55;20.30;99.90
37310;DHT22;23195;47.744;7.358;2023-08-06T12:38:40;20.10;99.90
37310;DHT22;23195;47.744;7.358;2023-08-06T12:44:14;19.60;99.90
37310;DHT22;23195;47.744;7.358;2023-08-06T12:46:51;19.80;99.90
37310;DHT22;23195;47.744;7.358;2023-08-06T12:49:18;19.80;99.90
37310;DHT22;23195;47.744;7.358;2023-08-06T12:51:57;19.90;99.90
37310;DHT22;23195;47.744;7.358;2023-08-06T12:54:38;19.90;99.90
37310;DHT22;23195;47.744;7.358;2023-08-06T12:57:14;20.40;99.90
37310;DHT22;23195;47.744;7.358;2023-08-06T12:59:40;19.50;99.90
37310;DHT22;23195;47.744;7.358;2023-08-06T13:02:16;19.90;99.90
37310;DHT22;23195;47.744;7.358;2023-08-06T13:05:01;19.80;99.90
37310;DHT22;23195;47.744;7.358;2023-08-06T13:07:51;19.80;99.90
37310;DHT22;23195;47.744;7.358;2023-08-06T13:10:20;19.50;99.90
37310;DHT22;23195;47.744;7.358;2023-08-06T13:13:04;19.70;99.90
37310;DHT22;23195;47.744;7.358;2023-08-06T13:15:36;19.70;99.90
37310;DHT22;23195;47.744;7.358;2023-08-06T13:18:02;19.30;99.90
37310;DHT22;23195;47.744;7.358;2023-08-06T13:20:42;19.80;99.90
37310;DHT22;23195;47.744;7.358;2023-08-06T13:23:20;20.00;99.90
37310;DHT22;23195;47.744;7.358;2023-08-06T13:26:12;20.20;99.90
37310;DHT22;23195;47.744;7.358;2023-08-06T13:28:45;20.50;99.90
37310;DHT22;23195;47.744;7.358;2023-08-06T13:31:41;20.60;99.90
37310;DHT22;23195;47.744;7.358;2023-08-06T13:34:07;20.60;99.90
37310;DHT22;23195;47.744;7.358;2023-08-06T13:36:35;20.50;99.90
37310;DHT22;23195;47.744;7.358;2023-08-06T13:39:14;20.40;99.90
37310;DHT22;23195;47.744;7.358;2023-08-06T13:41:52;20.20;99.90
37310;DHT22;23195;47.744;7.358;2023-08-06T13:44:29;20.00;99.90
37310;DHT22;23195;47.744;7.358;2023-08-06T13:47:02;20.00;99.90
37310;DHT22;23195;47.744;7.358;2023-08-06T13:49:41;19.90;99.90
37310;DHT22;23195;47.744;7.358;2023-08-06T13:52:29;19.80;99.90
37310;DHT22;23195;47.744;7.358;2023-08-06T13:54:57;19.70;99.90
37310;DHT22;23195;47.744;7.358;2023-08-06T13:57:23;19.40;99.90
37310;DHT22;23195;47.744;7.358;2023-08-06T13:59:49;19.20;99.90
37310;DHT22;23195;47.744;7.358;2023-08-06T14:02:24;19.20;99.90
37310;DHT22;23195;47.744;7.358;2023-08-06T14:04:55;19.10;99.90
37310;DHT22;23195;47.744;7.358;2023-08-06T14:07:30;19.00;99.90
37310;DHT22;23195;47.744;7.358;2023-08-06T14:09:59;19.00;99.90
37310;DHT22;23195;47.744;7.358;2023-08-06T14:12:34;19.10;99.90
37310;DHT22;23195;47.744;7.358;2023-08-06T14:15:11;19.10;99.90
37310;DHT22;23195;47.744;7.358;2023-08-06T14:17:48;19.30;99.90
37310;DHT22;23195;47.744;7.358;2023-08-06T14:20:26;19.30;99.90
37310;DHT22;23195;47.744;7.358;2023-08-06T14:22:58;19.20;99.90
37310;DHT22;23195;47.744;7.358;2023-08-06T14:25:47;19.10;99.90
37310;DHT22;23195;47.744;7.358;2023-08-06T14:28:27;19.10;99.90
37310;DHT22;23195;47.744;7.358;2023-08-06T14:31:00;19.20;99.90
37310;DHT22;23195;47.744;7.358;2023-08-06T14:33:30;19.50;99.90
37310;DHT22;23195;47.744;7.358;2023-08-06T14:36:04;19.60;99.90
37310;DHT22;23195;47.744;7.358;2023-08-06T14:38:45;19.50;99.90
37310;DHT22;23195;47.744;7.358;2023-08-06T14:41:18;19.40;99.90
37310;DHT22;23195;47.744;7.358;2023-08-06T14:43:46;19.30;99.90
37310;DHT22;23195;47.744;7.358;2023-08-06T14:46:49;19.30;99.90
37310;DHT22;23195;47.744;7.358;2023-08-06T14:49:25;19.50;99.90
37310;DHT22;23195;47.744;7.358;2023-08-06T14:52:24;19.50;99.90
37310;DHT22;23195;47.744;7.358;2023-08-06T14:55:38;19.50;99.90
37310;DHT22;23195;47.744;7.358;2023-08-06T14:58:28;19.30;99.90
37310;DHT22;23195;47.744;7.358;2023-08-06T15:01:09;18.80;99.90
37310;DHT22;23195;47.744;7.358;2023-08-06T15:07:32;18.70;99.90
37310;DHT22;23195;47.744;7.358;2023-08-06T15:10:19;18.60;99.90
37310;DHT22;23195;47.744;7.358;2023-08-06T15:13:04;18.70;99.90
37310;DHT22;23195;47.744;7.358;2023-08-06T15:15:33;18.60;99.90
37310;DHT22;23195;47.744;7.358;2023-08-06T15:21:41;18.80;99.90
37310;DHT22;23195;47.744;7.358;2023-08-06T15:24:25;19.30;99.90
37310;DHT22;23195;47.744;7.358;2023-08-06T15:27:30;19.80;99.90
37310;DHT22;23195;47.744;7.358;2023-08-06T15:30:08;19.80;99.90
37310;DHT22;23195;47.744;7.358;2023-08-06T15:33:12;19.80;99.90
37310;DHT22;23195;47.744;7.358;2023-08-06T15:36:08;19.40;99.90
37310;DHT22;23195;47.744;7.358;2023-08-06T15:38:46;19.30;99.90
37310;DHT22;23195;47.744;7.358;2023-08-06T15:41:12;18.90;99.90
37310;DHT22;23195;47.744;7.358;2023-08-06T15:44:02;19.30;99.90
37310;DHT22;23195;47.744;7.358;2023-08-06T15:47:12;18.90;99.90
37310;DHT22;23195;47.744;7.358;2023-08-06T15:50:25;19.10;99.90
37310;DHT22;23195;47.744;7.358;2023-08-06T15:53:12;19.10;99.90
37310;DHT22;23195;47.744;7.358;2023-08-06T16:07:00;18.70;99.90
37310;DHT22;23195;47.744;7.358;2023-08-06T16:10:09;18.70;99.90
37310;DHT22;23195;47.744;7.358;2023-08-06T16:12:52;18.80;99.90
37310;DHT22;23195;47.744;7.358;2023-08-06T16:36:59;19.30;99.90
37310;DHT22;23195;47.744;7.358;2023-08-06T16:46:32;18.40;99.90
37310;DHT22;23195;47.744;7.358;2023-08-06T16:49:23;18.80;99.90
37310;DHT22;23195;47.744;7.358;2023-08-06T16:52:09;18.70;99.90
37310;DHT22;23195;47.744;7.358;2023-08-06T16:55:12;18.70;99.90
37310;DHT22;23195;47.744;7.358;2023-08-06T16:57:49;18.60;99.90
37310;DHT22;23195;47.744;7.358;2023-08-06T17:00:52;18.50;99.90
37310;DHT22;23195;47.744;7.358;2023-08-06T17:03:51;18.20;99.90
37310;DHT22;23195;47.744;7.358;2023-08-06T17:06:37;17.80;99.90
37310;DHT22;23195;47.744;7.358;2023-08-06T17:09:23;17.90;99.90
37310;DHT22;23195;47.744;7.358;2023-08-06T17:12:13;17.40;99.90
37310;DHT22;23195;47.744;7.358;2023-08-06T17:14:49;18.00;99.90
37310;DHT22;23195;47.744;7.358;2023-08-06T17:17:58;18.10;99.90
37310;DHT22;23195;47.744;7.358;2023-08-06T17:20:34;18.20;99.90
37310;DHT22;23195;47.744;7.358;2023-08-06T17:23:00;18.30;99.90
37310;DHT22;23195;47.744;7.358;2023-08-06T17:28:58;18.30;99.90
37310;DHT22;23195;47.744;7.358;2023-08-06T17:31:29;18.20;99.90
37310;DHT22;23195;47.744;7.358;2023-08-06T17:34:32;18.20;99.90
37310;DHT22;23195;47.744;7.358;2023-08-06T17:37:32;18.10;99.90
37310;DHT22;23195;47.744;7.358;2023-08-06T17:47:01;17.70;99.90
37310;DHT22;23195;47.744;7.358;2023-08-06T17:49:38;17.70;99.90
37310;DHT22;23195;47.744;7.358;2023-08-06T17:52:32;17.50;99.90
37310;DHT22;23195;47.744;7.358;2023-08-06T17:55:11;17.40;99.90
37310;DHT22;23195;47.744;7.358;2023-08-06T17:58:00;17.30;99.90
37310;DHT22;23195;47.744;7.358;2023-08-06T18:00:48;16.70;99.90
37310;DHT22;23195;47.744;7.358;2023-08-06T18:03:47;17.30;99.90
37310;DHT22;23195;47.744;7.358;2023-08-06T18:06:59;17.00;99.90
37310;DHT22;23195;47.744;7.358;2023-08-06T18:09:53;17.20;99.90
37310;DHT22;23195;47.744;7.358;2023-08-06T18:12:32;17.10;99.90
37310;DHT22;23195;47.744;7.358;2023-08-06T18:15:23;17.00;99.90
37310;DHT22;23195;47.744;7.358;2023-08-06T18:21:34;16.90;99.90
37310;DHT22;23195;47.744;7.358;2023-08-06T18:27:42;16.80;99.90
37310;DHT22;23195;47.744;7.358;2023-08-06T18:30:52;16.70;99.90
37310;DHT22;23195;47.744;7.358;2023-08-06T18:33:56;16.30;99.90
37310;DHT22;23195;47.744;7.358;2023-08-06T18:43:58;16.40;99.90
37310;DHT22;23195;47.744;7.358;2023-08-06T18:47:02;16.40;99.90
37310;DHT22;23195;47.744;7.358;2023-08-06T18:49:44;16.40;99.90
37310;DHT22;23195;47.744;7.358;2023-08-06T19:06:23;16.00;99.90
37310;DHT22;23195;47.744;7.358;2023-08-06T19:09:51;15.90;99.90
37310;DHT22;23195;47.744;7.358;2023-08-06T19:51:43;14.50;99.90
37310;DHT22;23195;47.744;7.358;2023-08-06T20:01:50;14.90;99.90
37310;DHT22;23195;47.744;7.358;2023-08-06T20:15:35;14.90;99.90
37310;DHT22;23195;47.744;7.358;2023-08-06T20:26:16;15.10;99.90
37310;DHT22;23195;47.744;7.358;2023-08-06T20:29:31;15.20;99.90
37310;DHT22;23195;47.744;7.358;2023-08-06T20:33:06;14.90;99.90
37310;DHT22;23195;47.744;7.358;2023-08-06T20:35:32;14.90;99.90
37310;DHT22;23195;47.744;7.358;2023-08-06T20:38:17;14.80;99.90
37310;DHT22;23195;47.744;7.358;2023-08-06T20:44:29;15.10;99.90
37310;DHT22;23195;47.744;7.358;2023-08-06T20:47:37;14.70;99.90
37310;DHT22;23195;47.744;7.358;2023-08-06T20:51:01;14.60;99.90
37310;DHT22;23195;47.744;7.358;2023-08-06T20:53:39;14.70;99.90
37310;DHT22;23195;47.744;7.358;2023-08-06T21:10:15;14.30;99.90
37310;DHT22;23195;47.744;7.358;2023-08-06T21:13:11;14.30;99.90
37310;DHT22;23195;47.744;7.358;2023-08-06T21:19:01;14.60;99.90
37310;DHT22;23195;47.744;7.358;2023-08-06T21:21:45;14.20;99.90
37310;DHT22;23195;47.744;7.358;2023-08-06T21:24:43;13.60;99.90
37310;DHT22;23195;47.744;7.358;2023-08-06T21:27:38;14.10;99.90
37310;DHT22;23195;47.744;7.358;2023-08-06T21:30:09;14.00;99.90
37310;DHT22;23195;47.744;7.358;2023-08-06T21:33:10;14.20;99.90
37310;DHT22;23195;47.744;7.358;2023-08-06T21:39:25;14.40;99.90
37310;DHT22;23195;47.744;7.358;2023-08-06T21:42:07;14.20;99.90
37310;DHT22;23195;47.744;7.358;2023-08-06T21:44:41;14.20;99.90
37310;DHT22;23195;47.744;7.358;2023-08-06T21:48:08;14.20;99.90
37310;DHT22;23195;47.744;7.358;2023-08-06T21:50:52;14.20;99.90
37310;DHT22;23195;47.744;7.358;2023-08-06T21:56:44;14.20;99.90
37310;DHT22;23195;47.744;7.358;2023-08-06T22:02:46;14.20;99.90
37310;DHT22;23195;47.744;7.358;2023-08-06T22:08:43;14.20;99.90
37310;DHT22;23195;47.744;7.358;2023-08-06T22:14:48;14.20;99.90
37310;DHT22;23195;47.744;7.358;2023-08-06T22:20:52;14.30;99.90
37310;DHT22;23195;47.744;7.358;2023-08-06T22:23:28;14.40;99.90
37310;DHT22;23195;47.744;7.358;2023-08-06T22:26:33;14.40;99.90
37310;DHT22;23195;47.744;7.358;2023-08-06T22:29:09;14.70;99.90
37310;DHT22;23195;47.744;7.358;2023-08-06T22:31:49;14.90;99.90
37310;DHT22;23195;47.744;7.358;2023-08-06T22:37:49;14.40;99.90
37310;DHT22;23195;47.744;7.358;2023-08-06T22:40:43;14.50;99.90
37310;DHT22;23195;47.744;7.358;2023-08-06T22:46:58;14.40;99.90
37310;DHT22;23195;47.744;7.358;2023-08-06T22:49:37;14.40;99.90
37310;DHT22;23195;47.744;7.358;2023-08-06T22:52:29;14.40;99.90
37310;DHT22;23195;47.744;7.358;2023-08-06T22:55:03;14.40;99.90
37310;DHT22;23195;47.744;7.358;2023-08-06T22:57:55;14.50;99.90
37310;DHT22;23195;47.744;7.358;2023-08-06T23:00:51;14.60;99.90
37310;DHT22;23195;47.744;7.358;2023-08-06T23:03:50;14.60;99.90
37310;DHT22;23195;47.744;7.358;2023-08-06T23:07:04;14.60;99.90
37310;DHT22;23195;47.744;7.358;2023-08-06T23:12:57;14.60;99.90
37310;DHT22;23195;47.744;7.358;2023-08-06T23:16:08;14.60;99.90
37310;DHT22;23195;47.744;7.358;2023-08-06T23:18:46;14.00;99.90
37310;DHT22;23195;47.744;7.358;2023-08-06T23:21:26;14.60;99.90
37310;DHT22;23195;47.744;7.358;2023-08-06T23:27:02;14.50;99.90
37310;DHT22;23195;47.744;7.358;2023-08-06T23:32:48;14.40;99.90
37310;DHT22;23195;47.744;7.358;2023-08-06T23:35:59;14.30;99.90
37310;DHT22;23195;47.744;7.358;2023-08-06T23:38:53;14.30;99.90
37310;DHT22;23195;47.744;7.358;2023-08-06T23:42:03;14.20;99.90
37310;DHT22;23195;47.744;7.358;2023-08-06T23:44:51;14.30;99.90
37310;DHT22;23195;47.744;7.358;2023-08-06T23:47:33;14.30;99.90
37310;DHT22;23195;47.744;7.358;2023-08-06T23:50:28;14.30;99.90
37310;DHT22;23195;47.744;7.358;2023-08-06T23:59:54;14.00;99.90
